Time;durP1;ratioP1;P1;durP2;ratioP2;P2;SDS_P1;SDS_P2;PMS_P1;PMS_P2;Temp;Humidity;BMP_temperature;BMP_pressure;BME280_temperature;BME280_humidity;BME280_pressure;Samples;Min_cycle;Max_cycle;Signal;HPM_P1;HPM_P2
2022/05/12 00:00:09;;;;;;;2.40;0.45;;;14.30;79.00;;;;;;2082263;28;20022;-90
2022/05/12 00:01:29;;;;;;;3.47;0.63;;;14.40;79.10;;;;;;2077328;28;20042;-91
2022/05/12 00:02:49;;;;;;;1.27;0.50;;;14.40;79.00;;;;;;2060517;28;20038;-91
2022/05/12 00:04:08;;;;;;;3.42;0.60;;;14.30;79.00;;;;;;2067425;28;20041;-91
2022/05/12 00:05:27;;;;;;;3.28;0.70;;;14.30;79.10;;;;;;2059758;28;20043;-92
2022/05/12 00:06:47;;;;;;;2.37;0.50;;;14.20;79.00;;;;;;2059361;28;20433;-91
2022/05/12 00:08:07;;;;;;;2.97;0.80;;;14.20;79.10;;;;;;2057203;28;20338;-91
2022/05/12 00:09:27;;;;;;;3.00;0.57;;;14.20;79.10;;;;;;2065422;28;20046;-91
2022/05/12 00:10:46;;;;;;;1.45;0.50;;;14.20;79.10;;;;;;2080894;28;20045;-86
2022/05/12 00:12:06;;;;;;;4.20;0.60;;;14.20;79.10;;;;;;2075949;28;20481;-90
2022/05/12 00:13:26;;;;;;;3.00;0.50;;;14.20;79.10;;;;;;2066110;28;20038;-91
2022/05/12 00:14:45;;;;;;;2.03;0.52;;;14.20;79.00;;;;;;2070914;28;20049;-91
2022/05/12 00:16:04;;;;;;;3.15;0.60;;;14.20;79.00;;;;;;2074293;28;20507;-90
2022/05/12 00:17:23;;;;;;;2.47;0.55;;;14.20;79.00;;;;;;2070762;28;20049;-91
2022/05/12 00:18:43;;;;;;;3.30;0.68;;;14.20;79.00;;;;;;2058752;28;20043;-91
2022/05/12 00:20:03;;;;;;;2.33;0.40;;;14.10;78.90;;;;;;2062796;28;20050;-91
2022/05/12 00:21:22;;;;;;;3.60;0.40;;;14.10;78.90;;;;;;2067996;28;20033;-91
2022/05/12 00:22:41;;;;;;;1.50;0.40;;;14.10;78.90;;;;;;2073275;28;20046;-91
2022/05/12 00:24:01;;;;;;;3.03;0.50;;;14.10;78.90;;;;;;2070053;28;20124;-91
2022/05/12 00:25:22;;;;;;;4.97;0.70;;;14.10;78.90;;;;;;2073758;28;20037;-90
2022/05/12 00:26:42;;;;;;;2.97;0.60;;;14.10;79.00;;;;;;2073562;28;20403;-91
2022/05/12 00:28:02;;;;;;;2.25;0.40;;;14.10;79.00;;;;;;2057459;28;20058;-91
2022/05/12 00:29:21;;;;;;;2.80;0.55;;;14.00;78.90;;;;;;2068657;28;20487;-91
2022/05/12 00:30:41;;;;;;;2.67;0.50;;;14.00;79.00;;;;;;2071233;28;20042;-91
2022/05/12 00:32:01;;;;;;;2.60;0.70;;;14.00;79.00;;;;;;2074140;28;20050;-91
2022/05/12 00:33:22;;;;;;;1.48;0.50;;;13.90;79.00;;;;;;2071930;28;20041;-90
2022/05/12 00:34:41;;;;;;;1.60;0.60;;;13.90;79.00;;;;;;2074601;28;20413;-92
2022/05/12 00:36:00;;;;;;;1.42;0.40;;;13.90;79.00;;;;;;2074371;28;20038;-90
2022/05/12 00:37:19;;;;;;;2.63;0.57;;;13.90;79.10;;;;;;2069381;28;20417;-89
2022/05/12 00:38:39;;;;;;;1.98;0.47;;;13.90;79.10;;;;;;2049475;28;20510;-90
2022/05/12 00:39:58;;;;;;;1.83;0.50;;;13.90;79.10;;;;;;2065534;28;20041;-91
2022/05/12 00:41:17;;;;;;;3.00;0.52;;;13.90;79.10;;;;;;2076166;28;20077;-90
2022/05/12 00:42:50;;;;;;;1.80;0.50;;;13.90;79.10;;;;;;2073981;28;20050;-90
2022/05/12 00:44:13;;;;;;;3.00;0.50;;;13.90;79.10;;;;;;2071416;28;20038;-91
2022/05/12 00:45:38;;;;;;;2.40;0.50;;;13.90;79.10;;;;;;2066159;28;20041;-91
2022/05/12 00:46:57;;;;;;;2.15;0.57;;;13.90;79.00;;;;;;2074144;28;20346;-91
2022/05/12 00:48:16;;;;;;;2.65;0.50;;;13.90;79.10;;;;;;2074500;28;20054;-91
2022/05/12 00:49:38;;;;;;;3.72;0.73;;;13.80;79.10;;;;;;2057877;28;20046;-91
2022/05/12 00:50:58;;;;;;;1.95;0.50;;;13.80;79.10;;;;;;2063806;28;20117;-91
2022/05/12 00:52:23;;;;;;;2.90;0.60;;;13.80;79.10;;;;;;2072193;28;20049;-91
2022/05/12 00:53:45;;;;;;;3.58;0.70;;;13.80;79.20;;;;;;2060988;28;20042;-92
2022/05/12 00:55:16;;;;;;;2.28;0.50;;;13.80;79.30;;;;;;2063482;28;20444;-90
2022/05/12 00:56:36;;;;;;;0.95;0.50;;;13.70;79.30;;;;;;2064522;28;20421;-91
2022/05/12 00:57:58;;;;;;;1.98;0.60;;;13.70;79.90;;;;;;2067345;28;20492;-91
2022/05/12 00:59:28;;;;;;;1.48;0.43;;;13.70;79.40;;;;;;2065622;28;20042;-91
2022/05/12 01:00:48;;;;;;;1.77;0.50;;;13.70;79.30;;;;;;2065437;28;20038;-90
2022/05/12 01:02:14;;;;;;;1.08;0.40;;;13.70;79.30;;;;;;2059420;28;20048;-92
2022/05/12 01:03:37;;;;;;;2.22;0.60;;;13.70;79.30;;;;;;2070803;28;20050;-91
2022/05/12 01:04:58;;;;;;;2.72;0.55;;;13.70;80.00;;;;;;2063628;28;20046;-90
2022/05/12 01:06:17;;;;;;;1.35;0.40;;;13.70;79.40;;;;;;2071321;28;20042;-90
2022/05/12 01:07:38;;;;;;;1.83;0.50;;;13.60;79.40;;;;;;2067493;28;20489;-90
2022/05/12 01:08:57;;;;;;;2.10;0.40;;;13.60;79.40;;;;;;2070666;28;20117;-91
2022/05/12 01:10:16;;;;;;;2.38;0.50;;;13.60;79.40;;;;;;2051950;28;20046;-91
2022/05/12 01:11:35;;;;;;;1.38;0.40;;;13.60;79.50;;;;;;2062497;28;20030;-90
2022/05/12 01:12:56;;;;;;;2.63;0.45;;;13.60;79.60;;;;;;2062652;28;20049;-90
2022/05/12 01:14:15;;;;;;;1.48;0.30;;;13.60;79.60;;;;;;2070123;28;20068;-91
2022/05/12 01:15:34;;;;;;;2.33;0.50;;;13.60;80.20;;;;;;2069151;28;20085;-90
2022/05/12 01:16:57;;;;;;;1.90;0.45;;;13.60;79.70;;;;;;2073254;28;20046;-91
2022/05/12 01:18:18;;;;;;;2.42;0.40;;;13.60;79.60;;;;;;2074175;28;20058;-91
2022/05/12 01:19:40;;;;;;;2.30;0.40;;;13.50;79.60;;;;;;2067980;28;20098;-90
2022/05/12 01:20:59;;;;;;;2.25;0.40;;;13.50;79.60;;;;;;2067311;28;20034;-90
2022/05/12 01:22:50;;;;;;;1.83;0.60;;;13.50;79.70;;;;;;2077329;28;20516;-90
2022/05/12 01:24:10;;;;;;;2.42;0.50;;;13.50;79.70;;;;;;2069808;28;20038;-91
2022/05/12 01:25:30;;;;;;;3.00;0.55;;;13.50;79.80;;;;;;2071881;28;20050;-91
2022/05/12 01:26:50;;;;;;;2.10;0.50;;;13.40;79.80;;;;;;2070710;28;20026;-91
2022/05/12 01:28:09;;;;;;;3.03;0.40;;;13.40;79.90;;;;;;2064834;28;20054;-90
2022/05/12 01:29:28;;;;;;;3.50;0.70;;;13.40;79.90;;;;;;2072042;28;20038;-90
2022/05/12 01:30:48;;;;;;;2.03;0.50;;;13.30;79.90;;;;;;2073523;28;20054;-90
2022/05/12 01:32:07;;;;;;;2.80;0.50;;;13.30;80.00;;;;;;2063890;28;20038;-92
2022/05/12 01:33:27;;;;;;;1.55;0.50;;;13.30;80.00;;;;;;2054834;28;20038;-90
2022/05/12 01:34:47;;;;;;;0.87;0.40;;;13.30;80.10;;;;;;2069382;28;20412;-91
2022/05/12 01:36:06;;;;;;;2.65;0.60;;;13.30;80.10;;;;;;2075239;28;20046;-91
2022/05/12 01:37:25;;;;;;;1.92;0.40;;;13.30;80.10;;;;;;2075761;28;20042;-90
2022/05/12 01:38:44;;;;;;;1.42;0.50;;;13.20;80.60;;;;;;2079660;28;20038;-90
2022/05/12 01:40:05;;;;;;;2.47;0.60;;;13.30;80.10;;;;;;2081007;28;20089;-88
2022/05/12 01:41:24;;;;;;;2.55;0.50;;;13.30;80.10;;;;;;2063326;28;20054;-91
2022/05/12 01:42:44;;;;;;;2.55;0.43;;;13.20;80.10;;;;;;2079303;28;20029;-90
2022/05/12 01:44:04;;;;;;;2.45;0.47;;;13.10;80.20;;;;;;2087651;28;20021;-91
2022/05/12 01:45:24;;;;;;;2.03;0.47;;;13.10;80.30;;;;;;2078043;28;20041;-91
2022/05/12 01:46:43;;;;;;;3.80;0.75;;;13.10;80.40;;;;;;2073566;28;20037;-90
2022/05/12 01:48:04;;;;;;;2.63;0.60;;;13.10;80.50;;;;;;2074882;28;20045;-91
2022/05/12 01:49:23;;;;;;;2.85;0.60;;;13.00;80.50;;;;;;2076473;28;20073;-91
2022/05/12 01:50:45;;;;;;;3.58;0.60;;;13.00;80.50;;;;;;2086889;28;20037;-89
2022/05/12 01:52:05;;;;;;;1.05;0.35;;;13.00;80.50;;;;;;2082141;28;20014;-86
2022/05/12 01:53:25;;;;;;;3.60;0.70;;;13.00;80.60;;;;;;2073517;28;20141;-90
2022/05/12 01:54:44;;;;;;;1.13;0.40;;;13.00;80.60;;;;;;2070995;28;20483;-90
2022/05/12 01:56:05;;;;;;;2.90;0.60;;;13.00;80.50;;;;;;2063709;28;20051;-90
2022/05/12 01:57:25;;;;;;;3.35;0.60;;;13.00;80.70;;;;;;2072121;28;20477;-90
2022/05/12 01:58:44;;;;;;;4.35;0.85;;;13.00;80.70;;;;;;2074976;28;20038;-91
2022/05/12 02:00:06;;;;;;;2.53;0.60;;;13.00;80.70;;;;;;2074024;28;20033;-90
2022/05/12 02:01:25;;;;;;;1.52;0.30;;;13.00;80.70;;;;;;2066962;28;20092;-90
2022/05/12 02:02:45;;;;;;;2.50;0.60;;;13.00;80.70;;;;;;2068967;28;20050;-90
2022/05/12 02:04:05;;;;;;;2.05;0.80;;;12.90;80.70;;;;;;2065623;28;20046;-90
2022/05/12 02:05:24;;;;;;;2.53;0.60;;;12.90;80.70;;;;;;2063644;28;20050;-90
2022/05/12 02:06:45;;;;;;;2.53;0.52;;;12.90;80.80;;;;;;2069337;28;20037;-90
2022/05/12 02:08:06;;;;;;;3.42;0.52;;;12.90;80.80;;;;;;2074308;28;20500;-90
2022/05/12 02:09:25;;;;;;;2.22;0.50;;;12.90;80.80;;;;;;2075512;28;20038;-90
2022/05/12 02:10:48;;;;;;;1.40;0.55;;;12.90;80.90;;;;;;2065193;28;20046;-90
2022/05/12 02:12:08;;;;;;;3.47;0.80;;;12.90;81.00;;;;;;2062310;28;20030;-91
2022/05/12 02:13:27;;;;;;;1.77;0.60;;;12.90;81.00;;;;;;2062226;28;20042;-90
2022/05/12 02:14:47;;;;;;;2.75;0.63;;;12.90;80.90;;;;;;2062657;28;20030;-90
2022/05/12 02:16:06;;;;;;;2.53;0.70;;;12.90;80.90;;;;;;2067326;28;20034;-91
2022/05/12 02:17:25;;;;;;;1.45;0.60;;;12.90;80.80;;;;;;2071984;28;20057;-90
2022/05/12 02:18:45;;;;;;;2.92;0.93;;;12.90;80.80;;;;;;2055927;28;20034;-89
2022/05/12 02:20:05;;;;;;;1.83;0.50;;;12.90;80.80;;;;;;2065669;28;20124;-90
2022/05/12 02:21:24;;;;;;;3.63;0.80;;;12.90;80.90;;;;;;2078944;28;20494;-89
2022/05/12 02:22:43;;;;;;;2.08;0.60;;;12.90;80.90;;;;;;2076636;28;20034;-90
2022/05/12 02:24:03;;;;;;;2.38;0.70;;;12.90;81.10;;;;;;2076983;28;20033;-90
2022/05/12 02:25:23;;;;;;;2.55;0.60;;;12.90;81.10;;;;;;2062892;28;20042;-91
2022/05/12 02:26:42;;;;;;;2.45;0.52;;;12.80;81.00;;;;;;2077661;28;20053;-89
2022/05/12 02:28:02;;;;;;;1.73;0.63;;;12.80;81.10;;;;;;2072927;28;20054;-90
2022/05/12 02:29:21;;;;;;;3.00;0.60;;;12.80;81.10;;;;;;2056901;28;20047;-90
2022/05/12 02:30:40;;;;;;;2.60;0.70;;;12.80;81.10;;;;;;2067374;28;20049;-91
2022/05/12 02:31:59;;;;;;;1.33;0.60;;;12.80;81.20;;;;;;2066502;28;20471;-90
2022/05/12 02:33:18;;;;;;;3.50;0.80;;;12.80;81.20;;;;;;2075596;28;20041;-90
2022/05/12 02:34:38;;;;;;;2.22;0.60;;;12.80;81.90;;;;;;2067929;28;20034;-90
2022/05/12 02:35:57;;;;;;;2.40;0.70;;;12.80;81.30;;;;;;2071559;28;20045;-91
2022/05/12 02:37:16;;;;;;;2.30;0.68;;;12.70;81.30;;;;;;2075036;28;20038;-90
2022/05/12 02:38:36;;;;;;;1.95;0.50;;;12.80;81.40;;;;;;2072321;28;20128;-91
2022/05/12 02:39:55;;;;;;;1.60;0.70;;;12.70;81.30;;;;;;2064030;28;20095;-90
2022/05/12 02:41:14;;;;;;;2.95;0.70;;;12.70;81.40;;;;;;2072408;28;20041;-90
2022/05/12 02:42:34;;;;;;;1.45;0.60;;;12.70;81.50;;;;;;2060218;28;20133;-91
2022/05/12 02:43:53;;;;;;;1.90;0.65;;;12.70;81.50;;;;;;2068316;28;20124;-90
2022/05/12 02:45:12;;;;;;;2.25;0.60;;;12.60;81.40;;;;;;2057991;28;20051;-90
2022/05/12 02:46:31;;;;;;;2.13;0.63;;;12.60;81.40;;;;;;2071863;28;20393;-91
2022/05/12 02:47:51;;;;;;;2.20;0.60;;;12.60;81.50;;;;;;2058809;28;20079;-90
2022/05/12 02:49:10;;;;;;;2.28;0.60;;;12.60;81.50;;;;;;2068159;28;20050;-90
2022/05/12 02:50:30;;;;;;;3.78;0.80;;;12.60;81.60;;;;;;2073440;28;20046;-90
2022/05/12 02:51:49;;;;;;;2.10;0.60;;;12.60;81.70;;;;;;2065146;28;20047;-90
2022/05/12 02:53:08;;;;;;;2.80;0.68;;;12.50;81.70;;;;;;2071526;28;20038;-90
2022/05/12 02:54:28;;;;;;;3.00;0.60;;;12.50;81.80;;;;;;2057247;28;20047;-90
2022/05/12 02:55:47;;;;;;;2.75;0.75;;;12.50;81.80;;;;;;2064813;28;20042;-90
2022/05/12 02:57:07;;;;;;;3.17;0.80;;;12.50;82.40;;;;;;2072236;28;20046;-91
2022/05/12 02:58:27;;;;;;;3.78;0.63;;;12.50;81.80;;;;;;2082591;28;20132;-90
2022/05/12 02:59:47;;;;;;;;;;;12.50;81.80;;;;;;2065547;28;20609;-90
2022/05/12 03:01:07;;;;;;;2.58;0.63;;;12.50;81.70;;;;;;2069173;28;19909;-90
2022/05/12 03:02:27;;;;;;;2.55;0.57;;;12.50;81.70;;;;;;2050521;28;21622;-91
2022/05/12 03:03:46;;;;;;;2.85;0.70;;;12.40;81.70;;;;;;2063861;28;20050;-90
2022/05/12 03:05:06;;;;;;;1.23;0.63;;;12.40;81.80;;;;;;2057749;28;20039;-90
2022/05/12 03:06:26;;;;;;;2.65;0.65;;;12.40;81.90;;;;;;2044960;29;20039;-91
2022/05/12 03:07:45;;;;;;;1.75;0.60;;;12.30;82.60;;;;;;2053939;28;20042;-91
2022/05/12 03:09:04;;;;;;;1.80;0.60;;;12.30;82.10;;;;;;2069450;28;20037;-90
2022/05/12 03:10:24;;;;;;;1.02;0.50;;;12.30;82.20;;;;;;2060506;28;20039;-91
2022/05/12 03:11:43;;;;;;;1.67;0.60;;;12.30;82.20;;;;;;2066845;28;20037;-90
2022/05/12 03:13:03;;;;;;;1.80;0.60;;;12.20;82.20;;;;;;2063337;28;20042;-91
2022/05/12 03:14:23;;;;;;;3.13;0.70;;;12.20;82.30;;;;;;2074208;28;20054;-91
2022/05/12 03:15:42;;;;;;;2.20;0.80;;;12.20;82.30;;;;;;2074883;28;20045;-90
2022/05/12 03:17:02;;;;;;;2.97;1.00;;;12.20;82.40;;;;;;2072782;28;20120;-91
2022/05/12 03:18:21;;;;;;;1.55;0.60;;;12.20;82.40;;;;;;2076496;28;20120;-90
2022/05/12 03:19:41;;;;;;;2.70;0.90;;;12.20;82.50;;;;;;2075687;28;20046;-91
2022/05/12 03:21:00;;;;;;;2.65;0.80;;;12.20;82.50;;;;;;2079468;28;20316;-90
2022/05/12 03:22:20;;;;;;;4.05;0.80;;;12.20;82.50;;;;;;2076998;28;20046;-91
2022/05/12 03:23:40;;;;;;;2.38;0.68;;;12.20;82.50;;;;;;2076274;28;20038;-90
2022/05/12 03:24:59;;;;;;;2.33;0.80;;;12.10;82.60;;;;;;2083544;28;20026;-88
2022/05/12 03:26:19;;;;;;;2.17;0.70;;;12.10;82.70;;;;;;2081213;28;20033;-91
2022/05/12 03:27:39;;;;;;;2.38;0.93;;;12.10;82.80;;;;;;2076255;28;20042;-91
2022/05/12 03:28:58;;;;;;;2.47;1.00;;;12.10;82.90;;;;;;2075601;28;20080;-91
2022/05/12 03:30:20;;;;;;;2.75;1.00;;;12.10;82.90;;;;;;2053502;28;20030;-91
2022/05/12 03:31:40;;;;;;;3.25;1.00;;;12.10;82.90;;;;;;2056641;28;20039;-91
2022/05/12 03:32:59;;;;;;;2.80;1.00;;;12.10;82.90;;;;;;2083424;28;20045;-84
2022/05/12 03:34:19;;;;;;;2.60;0.93;;;12.10;82.90;;;;;;2076826;28;20046;-90
2022/05/12 03:35:38;;;;;;;2.20;0.95;;;12.10;82.90;;;;;;2061651;28;20069;-91
2022/05/12 03:36:57;;;;;;;3.20;1.15;;;12.10;83.00;;;;;;2064081;28;20050;-90
2022/05/12 03:38:17;;;;;;;2.88;0.93;;;12.10;83.10;;;;;;2068792;28;20050;-91
2022/05/12 03:39:38;;;;;;;2.45;0.93;;;12.10;83.10;;;;;;2076437;28;20459;-91
2022/05/12 03:40:58;;;;;;;3.70;1.23;;;12.10;83.10;;;;;;2078651;28;20041;-92
2022/05/12 03:42:18;;;;;;;5.22;1.10;;;12.10;83.10;;;;;;2076914;28;20042;-91
2022/05/12 03:45:16;;;;;;;2.70;0.98;;;12.10;83.10;;;;;;2066392;28;20119;-91
2022/05/12 03:46:35;;;;;;;1.77;0.90;;;12.10;83.00;;;;;;2072924;28;20038;-91
2022/05/12 03:47:56;;;;;;;4.85;1.20;;;12.10;83.00;;;;;;2076944;28;20042;-90
2022/05/12 03:49:15;;;;;;;2.53;1.10;;;12.10;83.00;;;;;;2071504;28;20041;-90
2022/05/12 03:50:34;;;;;;;3.90;1.20;;;12.10;83.10;;;;;;2070877;28;20069;-91
2022/05/12 03:51:53;;;;;;;2.38;1.00;;;12.10;83.10;;;;;;2065508;28;20506;-90
2022/05/12 03:53:12;;;;;;;2.47;1.00;;;12.10;83.10;;;;;;2071500;28;20037;-91
2022/05/12 03:54:32;;;;;;;3.15;1.10;;;12.10;83.20;;;;;;2063532;28;20042;-91
2022/05/12 03:55:51;;;;;;;2.97;1.38;;;12.10;83.20;;;;;;2070829;28;20038;-90
2022/05/12 03:57:13;;;;;;;2.75;1.02;;;12.00;83.20;;;;;;2074920;28;20527;-90
2022/05/12 03:58:33;;;;;;;2.58;1.20;;;12.00;83.20;;;;;;2066568;28;20464;-91
2022/05/12 03:59:53;;;;;;;4.68;1.38;;;12.00;83.30;;;;;;2068623;28;20128;-91
2022/05/12 04:01:13;;;;;;;4.38;1.42;;;12.00;83.40;;;;;;2068882;28;20034;-91
2022/05/12 04:02:32;;;;;;;3.88;1.33;;;12.00;83.40;;;;;;2071740;28;20038;-89
2022/05/12 04:03:51;;;;;;;4.72;1.00;;;12.00;84.10;;;;;;2074144;28;20404;-90
2022/05/12 04:05:10;;;;;;;3.55;1.45;;;12.00;83.60;;;;;;2066315;28;20050;-90
2022/05/12 04:06:30;;;;;;;3.17;1.23;;;12.00;83.60;;;;;;2074050;28;20038;-91
2022/05/12 04:07:51;;;;;;;2.47;1.10;;;12.00;83.70;;;;;;2071772;28;20051;-91
2022/05/12 04:09:11;;;;;;;;;;;12.00;83.70;;;;;;2076172;28;20049;-91
2022/05/12 04:10:30;;;;;;;2.20;1.15;;;12.00;83.60;;;;;;2073799;28;19906;-91
2022/05/12 04:11:49;;;;;;;3.83;1.30;;;12.00;83.50;;;;;;2051097;28;20043;-91
2022/05/12 04:13:09;;;;;;;2.38;1.05;;;12.00;84.20;;;;;;2070226;28;20053;-90
2022/05/12 04:14:28;;;;;;;4.30;1.40;;;12.00;83.70;;;;;;2082544;28;20041;-90
2022/05/12 04:15:48;;;;;;;3.40;1.50;;;12.00;83.70;;;;;;2069035;28;20038;-90
2022/05/12 04:17:10;;;;;;;2.38;1.42;;;12.00;83.80;;;;;;2073926;28;20492;-88
2022/05/12 04:18:30;;;;;;;2.85;1.33;;;12.00;83.80;;;;;;2074338;28;20042;-91
2022/05/12 04:19:50;;;;;;;3.95;1.60;;;12.00;83.80;;;;;;2071978;28;20045;-91
2022/05/12 04:21:09;;;;;;;2.40;1.25;;;12.00;83.80;;;;;;2075108;28;20042;-91
2022/05/12 04:22:28;;;;;;;2.72;1.50;;;12.10;83.90;;;;;;2070789;28;20050;-91
2022/05/12 04:23:48;;;;;;;4.07;1.50;;;12.10;84.00;;;;;;2076331;28;20516;-91
2022/05/12 04:25:07;;;;;;;3.30;1.40;;;12.10;84.00;;;;;;2075904;28;20473;-91
2022/05/12 04:26:26;;;;;;;2.38;1.35;;;12.10;84.10;;;;;;2063879;28;20046;-91
2022/05/12 04:27:45;;;;;;;2.28;1.20;;;12.10;84.10;;;;;;2073411;28;20484;-91
2022/05/12 04:29:05;;;;;;;2.85;1.48;;;12.10;84.10;;;;;;2082233;28;20053;-91
2022/05/12 04:30:26;;;;;;;2.80;1.40;;;12.10;84.20;;;;;;2060524;28;20038;-90
2022/05/12 04:31:45;;;;;;;2.63;1.30;;;12.10;84.20;;;;;;2055545;28;20502;-91
2022/05/12 04:36:21;;;;;;;2.17;1.30;;;12.10;84.20;;;;;;2072268;28;20038;-91
2022/05/12 04:37:46;;;;;;;1.88;1.27;;;12.10;84.30;;;;;;2058159;28;20039;-91
2022/05/12 04:39:06;;;;;;;3.50;1.40;;;12.10;84.30;;;;;;2077227;28;20084;-90
2022/05/12 04:40:28;;;;;;;3.47;1.55;;;12.10;84.30;;;;;;2073196;28;20030;-91
2022/05/12 04:41:47;;;;;;;2.92;1.40;;;12.10;84.30;;;;;;2070107;28;20566;-91
2022/05/12 04:43:07;;;;;;;2.17;1.23;;;12.10;84.30;;;;;;2060231;28;20177;-91
2022/05/12 04:44:26;;;;;;;2.17;1.20;;;12.20;84.40;;;;;;2076482;28;20466;-91
2022/05/12 04:45:45;;;;;;;3.45;1.20;;;12.20;84.30;;;;;;2080649;28;20046;-91
2022/05/12 04:47:04;;;;;;;2.45;1.35;;;12.20;84.40;;;;;;2081872;28;20033;-91
2022/05/12 04:48:25;;;;;;;4.55;1.50;;;12.20;84.30;;;;;;2082500;28;20057;-90
2022/05/12 04:49:44;;;;;;;2.85;1.45;;;12.20;84.30;;;;;;2082676;28;20045;-91
2022/05/12 04:51:03;;;;;;;3.20;1.40;;;12.20;84.30;;;;;;2074564;28;20049;-91
2022/05/12 04:52:23;;;;;;;2.95;1.30;;;12.20;84.30;;;;;;2058159;28;20584;-91
2022/05/12 04:53:42;;;;;;;3.90;1.40;;;12.30;84.40;;;;;;2067010;28;20046;-91
2022/05/12 04:55:02;;;;;;;2.22;1.30;;;12.30;84.50;;;;;;2080989;28;20038;-90
2022/05/12 04:56:21;;;;;;;2.28;1.35;;;12.30;84.40;;;;;;2077417;28;20049;-91
2022/05/12 04:57:43;;;;;;;4.95;1.50;;;12.30;84.40;;;;;;2072493;28;20049;-95
2022/05/12 04:59:05;;;;;;;3.67;1.20;;;12.30;84.40;;;;;;2078441;28;20041;-90
2022/05/12 05:00:35;;;;;;;3.35;1.15;;;12.30;84.40;;;;;;2080728;28;20041;-90
2022/05/12 05:01:54;;;;;;;2.42;1.20;;;12.30;84.50;;;;;;2073194;28;20034;-91
2022/05/12 05:03:13;;;;;;;2.53;1.10;;;12.30;84.50;;;;;;2085046;28;20085;-89
2022/05/12 05:04:33;;;;;;;2.15;1.13;;;12.30;84.50;;;;;;2081736;28;20034;-83
2022/05/12 05:05:52;;;;;;;2.33;1.17;;;12.40;84.50;;;;;;2079567;28;20046;-91
2022/05/12 05:07:12;;;;;;;2.40;1.08;;;12.40;84.50;;;;;;2063596;28;20058;-89
2022/05/12 05:08:32;;;;;;;1.83;1.02;;;12.50;84.50;;;;;;2079164;28;20037;-89
2022/05/12 05:09:52;;;;;;;2.67;1.20;;;12.50;84.40;;;;;;2080376;28;20037;-91
2022/05/12 05:11:11;;;;;;;3.60;1.30;;;12.60;84.30;;;;;;2065836;28;20046;-91
2022/05/12 05:12:31;;;;;;;2.75;1.13;;;12.60;84.10;;;;;;2061216;28;20280;-90
2022/05/12 05:13:50;;;;;;;2.65;1.23;;;12.70;84.10;;;;;;2061498;28;20409;-92
2022/05/12 05:15:11;;;;;;;3.28;1.33;;;12.80;84.00;;;;;;2071689;28;20034;-91
2022/05/12 05:16:32;;;;;;;2.67;1.05;;;12.90;83.80;;;;;;2081283;28;20058;-84
2022/05/12 05:17:52;;;;;;;3.17;1.02;;;13.00;83.60;;;;;;2088048;28;20061;-90
2022/05/12 05:19:11;;;;;;;2.28;1.00;;;13.10;83.40;;;;;;2074151;28;20467;-94
2022/05/12 05:20:31;;;;;;;1.92;1.00;;;13.20;83.20;;;;;;2077962;28;20042;-94
2022/05/12 05:21:50;;;;;;;2.40;1.00;;;13.30;83.00;;;;;;2082077;28;20045;-91
2022/05/12 05:23:11;;;;;;;3.25;1.10;;;13.40;82.80;;;;;;2073036;28;20089;-91
2022/05/12 05:24:31;;;;;;;2.22;1.02;;;13.40;82.60;;;;;;2079252;28;20042;-91
2022/05/12 05:25:51;;;;;;;2.72;0.98;;;13.50;82.50;;;;;;2074363;28;20500;-91
2022/05/12 05:27:10;;;;;;;2.97;1.17;;;13.60;83.10;;;;;;2066279;28;20101;-91
2022/05/12 05:28:30;;;;;;;2.15;0.90;;;13.60;82.20;;;;;;2073807;28;20038;-91
2022/05/12 05:29:51;;;;;;;2.47;1.10;;;13.70;82.10;;;;;;2078299;28;20037;-91
2022/05/12 05:31:10;;;;;;;3.50;1.10;;;13.70;82.00;;;;;;2077481;28;20029;-91
2022/05/12 05:32:29;;;;;;;1.73;1.00;;;13.80;82.50;;;;;;2059677;28;20046;-94
2022/05/12 05:33:49;;;;;;;1.77;0.98;;;13.90;81.90;;;;;;2069940;28;20049;-91
2022/05/12 05:35:09;;;;;;;2.55;1.05;;;13.90;81.70;;;;;;2083266;28;20041;-91
2022/05/12 05:36:28;;;;;;;3.95;1.20;;;14.00;81.50;;;;;;2085265;28;20021;-91
2022/05/12 05:37:49;;;;;;;3.20;1.20;;;14.10;81.50;;;;;;2084873;28;20041;-91
2022/05/12 05:39:17;;;;;;;3.80;1.30;;;14.20;81.30;;;;;;2079391;28;20077;-91
2022/05/12 05:40:36;;;;;;;3.13;1.15;;;14.20;81.20;;;;;;2076342;28;20116;-91
2022/05/12 05:42:03;;;;;;;2.13;1.00;;;14.30;81.10;;;;;;2074137;28;20015;-91
2022/05/12 05:43:23;;;;;;;2.88;1.13;;;14.30;80.90;;;;;;2083790;28;20041;-91
2022/05/12 05:44:43;;;;;;;1.98;0.93;;;14.40;80.80;;;;;;2074605;28;20046;-91
2022/05/12 05:46:02;;;;;;;3.33;1.17;;;14.50;80.70;;;;;;2077541;28;20033;-92
2022/05/12 05:47:21;;;;;;;2.88;1.25;;;14.50;80.60;;;;;;2074897;28;20132;-91
2022/05/12 05:48:40;;;;;;;2.97;1.10;;;14.60;80.50;;;;;;2060342;28;20047;-91
2022/05/12 05:50:00;;;;;;;3.17;1.38;;;14.60;80.40;;;;;;2065516;28;20461;-90
2022/05/12 05:54:35;;;;;;;2.78;1.20;;;14.80;80.20;;;;;;2071953;28;20034;-91
2022/05/12 05:55:57;;;;;;;3.33;1.30;;;14.80;80.10;;;;;;2075837;28;20041;-91
2022/05/12 05:57:30;;;;;;;3.00;1.10;;;14.90;80.00;;;;;;2075107;28;20057;-88
2022/05/12 05:58:49;;;;;;;2.20;1.10;;;14.90;79.90;;;;;;2076590;28;20037;-91
2022/05/12 06:00:09;;;;;;;3.00;1.20;;;14.90;79.80;;;;;;2077512;28;20101;-91
2022/05/12 06:01:28;;;;;;;3.67;1.25;;;14.90;79.70;;;;;;2074172;28;20045;-92
2022/05/12 06:02:48;;;;;;;3.10;1.20;;;15.00;79.80;;;;;;2065859;28;20042;-91
2022/05/12 06:04:07;;;;;;;3.75;1.23;;;15.00;79.80;;;;;;2055899;28;20043;-91
2022/05/12 06:05:27;;;;;;;3.65;1.55;;;15.00;79.80;;;;;;2067147;28;20078;-93
2022/05/12 06:06:47;;;;;;;2.67;1.50;;;15.00;79.90;;;;;;2070369;28;20038;-92
2022/05/12 06:08:14;;;;;;;3.20;1.58;;;15.00;79.80;;;;;;2078104;28;20054;-92
2022/05/12 06:09:33;;;;;;;3.50;1.13;;;15.00;79.80;;;;;;2077804;28;20400;-92
2022/05/12 06:10:52;;;;;;;5.10;1.40;;;15.10;79.80;;;;;;2066593;28;20035;-91
2022/05/12 06:12:11;;;;;;;3.47;1.33;;;15.10;79.70;;;;;;2071814;28;20054;-91
2022/05/12 06:13:34;;;;;;;3.25;1.48;;;15.10;79.60;;;;;;2073715;28;20577;-91
2022/05/12 06:14:56;;;;;;;3.63;1.58;;;15.20;79.60;;;;;;2074548;28;20033;-91
2022/05/12 06:16:16;;;;;;;3.88;1.40;;;15.20;79.50;;;;;;2074380;28;20041;-91
2022/05/12 06:17:36;;;;;;;2.20;1.10;;;15.30;79.60;;;;;;2078383;28;20495;-91
2022/05/12 06:18:56;;;;;;;2.88;1.40;;;15.30;79.50;;;;;;2079283;28;20124;-91
2022/05/12 06:20:16;;;;;;;3.53;1.70;;;15.30;79.50;;;;;;2071883;28;20114;-91
2022/05/12 06:21:37;;;;;;;3.63;1.50;;;15.30;79.50;;;;;;2073186;28;20037;-91
2022/05/12 06:22:56;;;;;;;3.38;1.40;;;15.30;79.40;;;;;;2065368;28;20050;-92
2022/05/12 06:24:15;;;;;;;5.25;1.42;;;15.30;79.40;;;;;;2073565;28;20033;-91
2022/05/12 06:25:35;;;;;;;3.67;1.40;;;15.40;80.10;;;;;;2070628;28;20042;-92
2022/05/12 06:26:55;;;;;;;1.90;1.20;;;15.40;79.40;;;;;;2065408;28;20114;-92
2022/05/12 06:28:14;;;;;;;2.65;1.55;;;15.40;79.30;;;;;;2058942;28;20150;-90
2022/05/12 06:29:34;;;;;;;3.60;1.70;;;15.50;79.30;;;;;;2067305;28;20046;-91
2022/05/12 06:30:53;;;;;;;3.00;1.50;;;15.50;79.20;;;;;;2078795;28;20037;-91
2022/05/12 06:32:12;;;;;;;3.83;1.83;;;15.50;79.20;;;;;;2071190;28;20042;-92
2022/05/12 06:33:33;;;;;;;5.10;1.60;;;15.50;79.10;;;;;;2070204;28;20403;-91
2022/05/12 06:34:53;;;;;;;4.15;1.63;;;15.60;79.10;;;;;;2074143;28;20117;-91
2022/05/12 06:36:12;;;;;;;3.40;1.40;;;15.60;79.00;;;;;;2072991;28;20057;-91
2022/05/12 06:37:32;;;;;;;2.78;1.40;;;15.70;78.90;;;;;;2074695;28;20072;-92
2022/05/12 06:38:51;;;;;;;3.25;1.60;;;15.70;78.80;;;;;;2053954;28;20054;-92
2022/05/12 06:40:11;;;;;;;4.55;1.65;;;15.80;78.80;;;;;;2070584;28;20045;-92
2022/05/12 06:41:32;;;;;;;4.30;1.63;;;15.90;78.80;;;;;;2071910;28;20432;-91
2022/05/12 06:42:51;;;;;;;;;;;15.90;78.60;;;;;;2071557;28;20038;-90
2022/05/12 06:44:10;;;;;;;2.50;1.40;;;15.90;78.40;;;;;;2070132;28;19914;-92
2022/05/12 06:45:29;;;;;;;3.45;1.60;;;15.90;78.40;;;;;;2068586;28;20034;-92
2022/05/12 06:46:49;;;;;;;4.28;1.63;;;15.90;78.40;;;;;;2070343;28;20060;-91
2022/05/12 06:48:08;;;;;;;2.90;1.30;;;16.00;78.40;;;;;;2082974;28;20033;-87
2022/05/12 06:49:28;;;;;;;2.33;1.20;;;16.00;78.30;;;;;;2083334;28;20030;-91
2022/05/12 06:50:47;;;;;;;5.65;1.60;;;16.00;78.20;;;;;;2070521;28;20053;-91
2022/05/12 06:52:08;;;;;;;3.53;1.52;;;16.10;78.10;;;;;;2066266;28;20039;-91
2022/05/12 06:53:28;;;;;;;4.15;1.65;;;16.10;78.00;;;;;;2081308;28;20033;-92
2022/05/12 06:54:47;;;;;;;3.67;1.50;;;16.10;77.80;;;;;;2056535;28;20043;-91
2022/05/12 06:56:07;;;;;;;3.80;1.50;;;16.10;77.80;;;;;;2054901;28;20129;-92
2022/05/12 06:57:27;;;;;;;5.07;1.50;;;16.10;77.70;;;;;;2066173;28;20050;-91
2022/05/12 06:58:46;;;;;;;3.38;1.40;;;16.20;77.60;;;;;;2066111;28;20042;-92
2022/05/12 07:00:08;;;;;;;4.15;1.60;;;16.20;77.40;;;;;;2060881;28;20035;-90
2022/05/12 07:01:28;;;;;;;3.03;1.23;;;16.20;77.30;;;;;;2077983;28;20030;-92
2022/05/12 07:02:47;;;;;;;4.75;1.30;;;16.30;77.30;;;;;;2073508;28;20038;-92
2022/05/12 07:04:07;;;;;;;2.38;1.20;;;16.30;77.20;;;;;;2070472;28;20489;-92
2022/05/12 07:05:26;;;;;;;3.40;1.20;;;16.30;77.00;;;;;;2066679;28;20038;-91